sensor_id;sensor_type;location;lat;lon;timestamp;pressure;altitude;pressure_sealevel;temperature;humidity
76331;BME280;65148;51.912;15.570;2023-08-01T00:00:29;100343.15;;;19.86;100.00
76331;BME280;65148;51.912;15.570;2023-08-01T00:15:47;100311.36;;;19.61;100.00
76331;BME280;65148;51.912;15.570;2023-08-01T00:30:48;100296.13;;;19.51;100.00
76331;BME280;65148;51.912;15.570;2023-08-01T00:45:49;100275.20;;;19.35;100.00
76331;BME280;65148;51.912;15.570;2023-08-01T01:00:50;100258.73;;;19.54;92.56
76331;BME280;65148;51.912;15.570;2023-08-01T01:16:09;100244.50;;;19.87;91.45
76331;BME280;65148;51.912;15.570;2023-08-01T01:31:10;100228.07;;;19.59;96.85
76331;BME280;65148;51.912;15.570;2023-08-01T01:46:11;100202.91;;;19.13;100.00
76331;BME280;65148;51.912;15.570;2023-08-01T02:01:12;100185.01;;;19.07;100.00
76331;BME280;65148;51.912;15.570;2023-08-01T02:16:31;100163.50;;;18.81;100.00
76331;BME280;65148;51.912;15.570;2023-08-01T02:31:32;100139.05;;;18.52;100.00
76331;BME280;65148;51.912;15.570;2023-08-01T02:46:33;100121.27;;;18.34;100.00
76331;BME280;65148;51.912;15.570;2023-08-01T03:01:38;100092.85;;;18.02;100.00
76331;BME280;65148;51.912;15.570;2023-08-01T03:16:54;100075.70;;;17.93;100.00
76331;BME280;65148;51.912;15.570;2023-08-01T03:31:55;100063.88;;;18.08;100.00
76331;BME280;65148;51.912;15.570;2023-08-01T03:46:56;100045.51;;;18.12;100.00
76331;BME280;65148;51.912;15.570;2023-08-01T04:01:56;100028.53;;;18.10;100.00
76331;BME280;65148;51.912;15.570;2023-08-01T04:17:16;100014.64;;;17.91;100.00
76331;BME280;65148;51.912;15.570;2023-08-01T04:32:17;100004.33;;;17.72;100.00
76331;BME280;65148;51.912;15.570;2023-08-01T04:47:19;99981.66;;;17.63;100.00
76331;BME280;65148;51.912;15.570;2023-08-01T05:02:19;99973.06;;;17.80;100.00
76331;BME280;65148;51.912;15.570;2023-08-01T05:17:39;99958.32;;;17.88;100.00
76331;BME280;65148;51.912;15.570;2023-08-01T05:32:40;99930.54;;;17.93;100.00
76331;BME280;65148;51.912;15.570;2023-08-01T05:47:41;99923.23;;;17.85;100.00
76331;BME280;65148;51.912;15.570;2023-08-01T06:02:42;99907.23;;;18.06;100.00
76331;BME280;65148;51.912;15.570;2023-08-01T06:18:02;99878.21;;;18.44;100.00
76331;BME280;65148;51.912;15.570;2023-08-01T06:33:03;99883.55;;;18.72;100.00
76331;BME280;65148;51.912;15.570;2023-08-01T06:48:04;99859.84;;;18.67;100.00
76331;BME280;65148;51.912;15.570;2023-08-01T07:03:05;99848.52;;;18.72;100.00
76331;BME280;65148;51.912;15.570;2023-08-01T07:18:24;99827.41;;;18.80;100.00
76331;BME280;65148;51.912;15.570;2023-08-01T07:33:25;99809.95;;;18.95;100.00
76331;BME280;65148;51.912;15.570;2023-08-01T07:48:26;99793.93;;;19.01;100.00
76331;BME280;65148;51.912;15.570;2023-08-01T08:03:27;99789.00;;;18.71;100.00
76331;BME280;65148;51.912;15.570;2023-08-01T08:18:47;99775.42;;;18.24;100.00
76331;BME280;65148;51.912;15.570;2023-08-01T08:33:47;99775.79;;;18.22;100.00
76331;BME280;65148;51.912;15.570;2023-08-01T08:48:49;99749.83;;;18.43;100.00
76331;BME280;65148;51.912;15.570;2023-08-01T09:03:50;99733.30;;;18.62;100.00
76331;BME280;65148;51.912;15.570;2023-08-01T09:19:09;99738.25;;;18.95;100.00
76331;BME280;65148;51.912;15.570;2023-08-01T09:34:20;99710.05;;;18.82;100.00
76331;BME280;65148;51.912;15.570;2023-08-01T09:49:21;99694.69;;;18.81;100.00
76331;BME280;65148;51.912;15.570;2023-08-01T10:04:47;99679.38;;;19.33;100.00
76331;BME280;65148;51.912;15.570;2023-08-01T10:19:49;99687.27;;;19.08;100.00
76331;BME280;65148;51.912;15.570;2023-08-01T10:34:51;99701.90;;;18.67;100.00
76331;BME280;65148;51.912;15.570;2023-08-01T10:49:52;99695.58;;;19.35;100.00
76331;BME280;65148;51.912;15.570;2023-08-01T11:05:09;99689.43;;;20.31;100.00
76331;BME280;65148;51.912;15.570;2023-08-01T11:20:11;99633.05;;;20.80;100.00
76331;BME280;65148;51.912;15.570;2023-08-01T11:35:17;99663.53;;;21.31;100.00
76331;BME280;65148;51.912;15.570;2023-08-01T11:50:47;99683.48;;;21.51;100.00
76331;BME280;65148;51.912;15.570;2023-08-01T12:05:48;99666.24;;;21.85;100.00
76331;BME280;65148;51.912;15.570;2023-08-01T12:20:49;99677.54;;;22.25;100.00
76331;BME280;65148;51.912;15.570;2023-08-01T12:35:50;99702.99;;;20.76;100.00
76331;BME280;65148;51.912;15.570;2023-08-01T12:51:09;99691.67;;;20.92;100.00
76331;BME280;65148;51.912;15.570;2023-08-01T13:06:13;99705.84;;;21.28;100.00
76331;BME280;65148;51.912;15.570;2023-08-01T13:26:53;99707.36;;;21.22;100.00
76331;BME280;65148;51.912;15.570;2023-08-01T13:41:53;99686.69;;;21.60;100.00
76331;BME280;65148;51.912;15.570;2023-08-01T13:56:54;99682.87;;;21.82;100.00
76331;BME280;65148;51.912;15.570;2023-08-01T14:12:12;99713.55;;;21.56;100.00
76331;BME280;65148;51.912;15.570;2023-08-01T14:27:16;99732.80;;;21.93;100.00
76331;BME280;65148;51.912;15.570;2023-08-01T14:42:17;99759.67;;;21.34;100.00
76331;BME280;65148;51.912;15.570;2023-08-01T14:57:18;99750.94;;;21.28;100.00
76331;BME280;65148;51.912;15.570;2023-08-01T15:12:30;99769.18;;;21.88;100.00
76331;BME280;65148;51.912;15.570;2023-08-01T15:27:31;99771.95;;;21.88;100.00
76331;BME280;65148;51.912;15.570;2023-08-01T15:42:32;99813.90;;;21.82;100.00
76331;BME280;65148;51.912;15.570;2023-08-01T15:57:33;99804.24;;;21.62;100.00
76331;BME280;65148;51.912;15.570;2023-08-01T16:12:51;99811.71;;;22.09;100.00
76331;BME280;65148;51.912;15.570;2023-08-01T16:27:53;99825.20;;;22.11;100.00
76331;BME280;65148;51.912;15.570;2023-08-01T16:42:54;99849.54;;;22.39;90.80
76331;BME280;65148;51.912;15.570;2023-08-01T16:57:55;99855.72;;;22.80;92.17
76331;BME280;65148;51.912;15.570;2023-08-01T17:13:12;99830.26;;;22.67;93.49
76331;BME280;65148;51.912;15.570;2023-08-01T17:28:13;99863.59;;;22.09;95.11
76331;BME280;65148;51.912;15.570;2023-08-01T17:43:14;99889.46;;;21.79;93.51
76331;BME280;65148;51.912;15.570;2023-08-01T17:58:15;99909.73;;;21.46;95.61
76331;BME280;65148;51.912;15.570;2023-08-01T18:13:33;99923.95;;;20.82;100.00
76331;BME280;65148;51.912;15.570;2023-08-01T18:28:35;99919.73;;;20.61;100.00
76331;BME280;65148;51.912;15.570;2023-08-01T18:43:36;99941.63;;;20.24;100.00
76331;BME280;65148;51.912;15.570;2023-08-01T18:58:38;99996.33;;;19.69;100.00
76331;BME280;65148;51.912;15.570;2023-08-01T19:13:55;100016.67;;;19.23;100.00
76331;BME280;65148;51.912;15.570;2023-08-01T19:28:55;100015.64;;;19.12;100.00
76331;BME280;65148;51.912;15.570;2023-08-01T19:43:56;100014.84;;;19.11;100.00
76331;BME280;65148;51.912;15.570;2023-08-01T19:58:58;100055.15;;;18.65;100.00
76331;BME280;65148;51.912;15.570;2023-08-01T20:14:17;100065.25;;;18.30;100.00
76331;BME280;65148;51.912;15.570;2023-08-01T20:29:17;100087.04;;;18.35;100.00
76331;BME280;65148;51.912;15.570;2023-08-01T20:44:18;100108.17;;;17.87;100.00
76331;BME280;65148;51.912;15.570;2023-08-01T20:59:19;100121.05;;;17.83;100.00
76331;BME280;65148;51.912;15.570;2023-08-01T21:14:39;100129.24;;;17.55;100.00
76331;BME280;65148;51.912;15.570;2023-08-01T21:29:39;100133.05;;;17.63;100.00
76331;BME280;65148;51.912;15.570;2023-08-01T21:44:41;100143.26;;;17.50;100.00
76331;BME280;65148;51.912;15.570;2023-08-01T21:59:42;100148.53;;;17.31;100.00
76331;BME280;65148;51.912;15.570;2023-08-01T22:15:01;100153.27;;;17.06;100.00
76331;BME280;65148;51.912;15.570;2023-08-01T22:30:02;100165.27;;;16.89;100.00
76331;BME280;65148;51.912;15.570;2023-08-01T22:45:04;100174.21;;;16.74;100.00
76331;BME280;65148;51.912;15.570;2023-08-01T23:00:06;100170.81;;;16.56;100.00
76331;BME280;65148;51.912;15.570;2023-08-01T23:15:24;100183.41;;;16.24;100.00
76331;BME280;65148;51.912;15.570;2023-08-01T23:30:24;100204.76;;;16.06;100.00
76331;BME280;65148;51.912;15.570;2023-08-01T23:45:25;100202.89;;;15.98;100.00
